createdAt,value
2018-06-27T00:02:04.926Z,14.90
2018-06-27T00:04:33.297Z,14.80
2018-06-27T00:07:01.616Z,14.80
2018-06-27T00:09:29.835Z,14.70
2018-06-27T00:11:58.124Z,14.70
2018-06-27T00:14:26.339Z,14.80
2018-06-27T00:16:54.598Z,14.70
2018-06-27T00:19:22.897Z,14.60
2018-06-27T00:21:51.375Z,14.50
2018-06-27T00:24:19.580Z,14.40
2018-06-27T00:26:47.827Z,14.30
2018-06-27T00:29:16.007Z,14.20
2018-06-27T00:31:44.544Z,14.10
2018-06-27T00:34:12.790Z,14.00
2018-06-27T00:36:41.458Z,14.00
2018-06-27T00:39:10.360Z,13.90
2018-06-27T00:41:38.928Z,13.90
2018-06-27T00:44:07.235Z,13.90
2018-06-27T00:46:35.895Z,13.90
2018-06-27T00:49:04.385Z,13.90
2018-06-27T00:51:32.884Z,13.90
2018-06-27T00:54:08.612Z,13.90
2018-06-27T00:56:40.069Z,14.00
2018-06-27T00:59:08.624Z,14.00
2018-06-27T01:01:37.365Z,13.90
2018-06-27T01:04:05.647Z,13.80
2018-06-27T01:06:33.897Z,13.80
2018-06-27T01:09:02.335Z,13.70
2018-06-27T01:11:31.569Z,13.60
2018-06-27T01:14:02.892Z,13.50
2018-06-27T01:16:31.099Z,13.40
2018-06-27T01:18:59.349Z,13.30
2018-06-27T01:21:27.571Z,13.40
2018-06-27T01:23:56.075Z,13.40
2018-06-27T01:26:24.326Z,13.40
2018-06-27T01:28:52.535Z,13.50
2018-06-27T01:31:21.026Z,13.50
2018-06-27T01:33:49.263Z,13.60
2018-06-27T01:36:17.770Z,13.70
2018-06-27T01:38:46.210Z,13.80
2018-06-27T01:41:14.439Z,14.00
2018-06-27T01:43:42.707Z,14.00
2018-06-27T01:46:11.005Z,14.10
2018-06-27T01:48:39.265Z,14.10
2018-06-27T01:51:07.760Z,14.10
2018-06-27T01:53:37.489Z,14.10
2018-06-27T01:56:06.915Z,14.00
2018-06-27T01:58:35.197Z,14.00
2018-06-27T02:01:03.380Z,14.00
2018-06-27T02:03:32.073Z,14.00
2018-06-27T02:06:00.360Z,14.00
2018-06-27T02:08:29.587Z,14.10
2018-06-27T02:10:58.333Z,14.10
2018-06-27T02:13:26.618Z,14.10
2018-06-27T02:15:54.829Z,14.10
2018-06-27T02:18:23.071Z,14.10
2018-06-27T02:20:51.334Z,14.10
2018-06-27T02:23:19.967Z,14.10
2018-06-27T02:25:48.247Z,14.10
2018-06-27T02:28:16.700Z,14.00
2018-06-27T02:30:44.989Z,14.10
2018-06-27T02:33:18.620Z,14.10
2018-06-27T02:35:46.832Z,14.10
2018-06-27T02:38:15.246Z,14.10
2018-06-27T02:40:43.590Z,14.10
2018-06-27T02:43:12.097Z,14.00
2018-06-27T02:45:40.332Z,14.00
2018-06-27T02:48:08.568Z,14.00
2018-06-27T02:50:36.774Z,13.90
2018-06-27T02:53:05.105Z,13.80
2018-06-27T02:55:33.405Z,13.80
2018-06-27T02:58:01.645Z,13.80
2018-06-27T03:00:29.874Z,13.70
2018-06-27T03:02:58.180Z,13.70
2018-06-27T03:05:26.467Z,13.70
2018-06-27T03:07:59.893Z,13.70
2018-06-27T03:10:28.151Z,13.70
2018-06-27T03:12:56.384Z,13.70
2018-06-27T03:15:25.938Z,13.70
2018-06-27T03:17:54.255Z,13.70
2018-06-27T03:20:22.504Z,13.70
2018-06-27T03:22:51.010Z,13.70
2018-06-27T03:25:19.232Z,13.60
2018-06-27T03:27:47.533Z,13.60
2018-06-27T03:30:16.240Z,13.50
2018-06-27T03:32:44.502Z,13.40
2018-06-27T03:35:13.023Z,13.40
2018-06-27T03:37:41.212Z,13.30
2018-06-27T03:40:09.931Z,13.30
2018-06-27T03:42:38.175Z,13.30
2018-06-27T03:45:06.432Z,13.40
2018-06-27T03:47:34.645Z,13.50
2018-06-27T03:50:02.851Z,13.60
2018-06-27T03:52:31.123Z,13.60
2018-06-27T03:55:00.019Z,13.70
2018-06-27T03:57:28.288Z,13.70
2018-06-27T03:59:56.502Z,13.70
2018-06-27T04:02:24.749Z,13.80
2018-06-27T04:04:52.983Z,13.90
2018-06-27T04:07:21.300Z,13.90
2018-06-27T04:09:49.535Z,13.90
2018-06-27T04:12:17.787Z,14.00
2018-06-27T04:14:46.015Z,14.00
2018-06-27T04:17:14.323Z,14.10
2018-06-27T04:19:42.566Z,14.10
2018-06-27T04:22:10.804Z,14.20
2018-06-27T04:24:39.037Z,14.30
2018-06-27T04:27:07.392Z,14.40
2018-06-27T04:29:35.623Z,14.40
2018-06-27T04:32:03.902Z,14.50
2018-06-27T04:34:32.159Z,14.60
2018-06-27T04:37:00.389Z,14.70
2018-06-27T04:39:28.628Z,14.80
2018-06-27T04:41:56.845Z,14.90
2018-06-27T04:44:25.103Z,15.30
2018-06-27T04:46:53.382Z,16.60
2018-06-27T04:49:21.639Z,18.20
2018-06-27T04:51:50.177Z,19.40
2018-06-27T04:54:18.392Z,20.20
2018-06-27T04:56:46.654Z,21.40
2018-06-27T04:59:14.874Z,22.30
2018-06-27T05:01:43.125Z,23.10
2018-06-27T05:04:11.364Z,23.80
2018-06-27T05:06:39.611Z,24.20
2018-06-27T05:09:09.658Z,24.50
2018-06-27T05:11:38.501Z,24.90
2018-06-27T05:14:07.272Z,25.00
2018-06-27T05:16:35.524Z,24.80
2018-06-27T05:19:03.736Z,25.00
2018-06-27T05:21:32.014Z,25.40
2018-06-27T05:24:00.252Z,26.00
2018-06-27T05:26:28.473Z,26.50
2018-06-27T05:28:57.751Z,26.80
2018-06-27T05:31:26.026Z,26.50
2018-06-27T05:33:54.575Z,26.20
2018-06-27T05:36:23.028Z,25.90
2018-06-27T05:38:51.676Z,25.70
2018-06-27T05:41:20.365Z,25.80
2018-06-27T05:43:48.740Z,26.00
2018-06-27T05:46:17.104Z,26.20
2018-06-27T05:48:45.546Z,26.40
2018-06-27T05:51:14.189Z,26.10
2018-06-27T05:53:42.713Z,26.10
2018-06-27T05:56:11.167Z,26.50
2018-06-27T05:58:39.428Z,26.80
2018-06-27T06:01:07.620Z,26.80
2018-06-27T06:03:35.994Z,26.80
2018-06-27T06:06:05.084Z,27.00
2018-06-27T06:08:34.447Z,27.70
2018-06-27T06:11:03.114Z,28.50
2018-06-27T06:13:31.411Z,28.70
2018-06-27T06:15:59.739Z,28.60
2018-06-27T06:18:28.012Z,28.40
2018-06-27T06:20:56.355Z,28.20
2018-06-27T06:23:24.772Z,27.60
2018-06-27T06:25:53.074Z,27.70
2018-06-27T06:28:21.499Z,27.70
2018-06-27T06:30:49.981Z,28.10
2018-06-27T06:33:18.584Z,27.90
2018-06-27T06:35:47.725Z,27.60
2018-06-27T06:38:15.993Z,27.20
2018-06-27T06:40:44.248Z,26.80
2018-06-27T06:43:12.583Z,27.00
2018-06-27T06:45:40.866Z,27.50
2018-06-27T06:48:09.122Z,26.90
2018-06-27T06:50:37.412Z,26.40
2018-06-27T06:53:05.676Z,26.60
2018-06-27T06:55:33.908Z,26.80
2018-06-27T06:58:02.679Z,27.30
2018-06-27T07:00:30.971Z,28.10
2018-06-27T07:02:59.422Z,28.50
2018-06-27T07:05:27.690Z,28.40
2018-06-27T07:07:55.947Z,28.40
2018-06-27T07:10:24.519Z,27.60
2018-06-27T07:12:52.807Z,27.10
2018-06-27T07:15:21.549Z,27.70
2018-06-27T07:17:49.836Z,28.00
2018-06-27T07:20:18.749Z,28.20
2018-06-27T07:22:46.963Z,27.70
2018-06-27T07:25:15.988Z,28.20
2018-06-27T07:27:44.789Z,28.30
2018-06-27T07:30:13.058Z,28.60
2018-06-27T07:32:41.816Z,28.60
2018-06-27T07:35:10.665Z,28.80
2018-06-27T07:37:39.006Z,29.20
2018-06-27T07:40:07.228Z,29.60
2018-06-27T07:42:35.843Z,29.90
2018-06-27T07:45:04.153Z,29.20
2018-06-27T07:47:32.395Z,28.90
2018-06-27T07:50:00.738Z,29.20
2018-06-27T07:52:28.928Z,28.40
2018-06-27T07:54:57.299Z,28.50
2018-06-27T07:57:25.619Z,28.90
2018-06-27T07:59:53.821Z,29.30
2018-06-27T08:02:22.035Z,30.10
2018-06-27T08:04:50.343Z,30.30
2018-06-27T08:07:18.566Z,30.70
2018-06-27T08:09:47.009Z,30.70
2018-06-27T08:12:15.268Z,30.90
2018-06-27T08:14:44.043Z,30.70
2018-06-27T08:17:12.279Z,30.70
2018-06-27T08:19:40.583Z,30.60
2018-06-27T08:22:08.807Z,30.90
2018-06-27T08:24:37.067Z,30.80
2018-06-27T08:27:05.391Z,30.80
2018-06-27T08:29:34.928Z,30.30
2018-06-27T08:32:03.171Z,29.50
2018-06-27T08:34:31.460Z,29.60
2018-06-27T08:36:59.724Z,29.30
2018-06-27T08:39:28.037Z,29.40
2018-06-27T08:41:56.325Z,29.40
2018-06-27T08:44:24.660Z,29.60
2018-06-27T08:46:52.911Z,29.80
2018-06-27T08:49:21.189Z,29.20
2018-06-27T08:51:49.515Z,29.60
2018-06-27T08:54:17.765Z,30.00
2018-06-27T08:56:46.065Z,30.80
2018-06-27T08:59:14.309Z,30.70
2018-06-27T09:01:42.580Z,30.70
2018-06-27T09:04:11.012Z,30.70
2018-06-27T09:09:08.963Z,30.30
2018-06-27T09:11:37.308Z,29.60
2018-06-27T09:14:07.461Z,29.30
2018-06-27T09:16:35.772Z,28.50
2018-06-27T09:19:04.288Z,28.80
2018-06-27T09:21:32.579Z,29.20
2018-06-27T09:24:01.202Z,29.40
2018-06-27T09:26:29.548Z,29.80
2018-06-27T09:28:57.801Z,30.00
2018-06-27T09:31:26.018Z,29.60
2018-06-27T09:33:55.089Z,30.30
2018-06-27T09:36:23.431Z,30.30
2018-06-27T09:38:51.756Z,29.80
2018-06-27T09:41:20.081Z,29.80
2018-06-27T09:43:49.290Z,30.10
2018-06-27T09:46:17.650Z,30.20
2018-06-27T09:48:46.100Z,30.10
2018-06-27T09:51:14.445Z,30.60
2018-06-27T09:53:42.945Z,30.00
2018-06-27T09:56:11.177Z,29.80
2018-06-27T09:58:39.885Z,29.90
2018-06-27T10:01:08.160Z,29.70
2018-06-27T10:03:36.408Z,29.70
2018-06-27T10:06:04.652Z,30.10
2018-06-27T10:08:32.891Z,30.10
2018-06-27T10:11:01.100Z,30.40
2018-06-27T10:13:29.759Z,30.60
2018-06-27T10:15:58.458Z,31.10
2018-06-27T10:18:26.736Z,31.50
2018-06-27T10:20:55.441Z,31.00
2018-06-27T10:23:23.699Z,30.50
2018-06-27T10:25:51.883Z,30.80
2018-06-27T10:28:20.660Z,30.50
2018-06-27T10:30:49.302Z,30.40
2018-06-27T10:33:17.615Z,31.10
2018-06-27T10:35:45.939Z,30.80
2018-06-27T10:38:14.074Z,30.70
2018-06-27T10:40:42.916Z,30.60
2018-06-27T10:43:11.131Z,31.10
2018-06-27T10:45:39.386Z,32.00
2018-06-27T10:48:07.590Z,30.70
2018-06-27T10:50:35.832Z,29.90
2018-06-27T10:53:04.403Z,29.70
2018-06-27T10:55:32.623Z,29.90
2018-06-27T10:58:00.828Z,29.90
2018-06-27T11:00:29.011Z,30.10
2018-06-27T11:02:57.768Z,30.50
2018-06-27T11:05:26.086Z,30.10
2018-06-27T11:07:54.276Z,30.60
2018-06-27T11:10:23.127Z,30.90
2018-06-27T11:12:51.388Z,30.50
2018-06-27T11:15:20.185Z,29.90
2018-06-27T11:17:48.395Z,29.70
2018-06-27T11:20:16.646Z,29.60
2018-06-27T11:22:44.903Z,29.90
2018-06-27T11:25:13.577Z,30.20
2018-06-27T11:27:42.135Z,29.90
2018-06-27T11:30:10.815Z,28.90
2018-06-27T11:32:39.148Z,28.60
2018-06-27T11:35:07.370Z,28.70
2018-06-27T11:37:35.644Z,29.00
2018-06-27T11:40:04.119Z,29.20
2018-06-27T11:42:32.371Z,29.00
2018-06-27T11:45:00.606Z,29.30
2018-06-27T11:47:28.831Z,29.20
2018-06-27T11:49:57.404Z,29.10
2018-06-27T11:52:25.655Z,28.90
2018-06-27T11:54:59.203Z,28.80
2018-06-27T11:57:27.487Z,29.10
2018-06-27T11:59:55.843Z,29.10
2018-06-27T12:04:52.109Z,29.40
2018-06-27T12:07:21.260Z,29.00
2018-06-27T12:09:49.511Z,29.20
2018-06-27T12:12:17.695Z,29.50
2018-06-27T12:14:45.943Z,29.50
2018-06-27T12:17:14.553Z,29.10
2018-06-27T12:19:42.835Z,28.80
2018-06-27T12:22:11.556Z,28.80
2018-06-27T12:27:09.783Z,29.30
2018-06-27T12:29:37.989Z,29.00
2018-06-27T12:32:06.253Z,28.80
2018-06-27T12:34:34.479Z,28.80
2018-06-27T12:37:02.715Z,28.60
2018-06-27T12:39:31.583Z,28.30
2018-06-27T12:41:59.820Z,28.60
2018-06-27T12:44:28.881Z,28.60
2018-06-27T12:46:57.128Z,28.60
2018-06-27T12:49:25.359Z,28.30
2018-06-27T12:51:53.651Z,28.20
2018-06-27T12:54:22.132Z,28.70
2018-06-27T12:56:50.332Z,29.10
2018-06-27T12:59:18.582Z,29.40
2018-06-27T13:01:46.830Z,29.40
2018-06-27T13:04:15.119Z,29.20
2018-06-27T13:06:43.379Z,29.30
2018-06-27T13:09:11.909Z,29.20
2018-06-27T13:11:41.495Z,29.50
2018-06-27T13:14:09.741Z,29.70
2018-06-27T13:16:37.963Z,29.20
2018-06-27T13:19:07.756Z,28.90
2018-06-27T13:21:36.016Z,29.10
2018-06-27T13:24:04.332Z,28.80
2018-06-27T13:26:32.619Z,28.80
2018-06-27T13:29:01.419Z,28.50
2018-06-27T13:31:31.489Z,28.80
2018-06-27T13:33:59.743Z,29.50
2018-06-27T13:36:27.947Z,29.30
2018-06-27T13:38:56.236Z,29.30
2018-06-27T13:41:24.545Z,29.90
2018-06-27T13:43:52.888Z,30.20
2018-06-27T13:46:21.692Z,30.50
2018-06-27T13:48:49.936Z,30.70
2018-06-27T13:51:18.168Z,31.00
2018-06-27T13:53:46.510Z,31.20
2018-06-27T13:56:14.684Z,30.80
2018-06-27T13:58:42.943Z,29.30
2018-06-27T14:01:11.199Z,28.10
2018-06-27T14:03:39.476Z,28.00
2018-06-27T14:06:07.686Z,28.40
2018-06-27T14:08:36.020Z,28.30
2018-06-27T14:11:04.322Z,28.20
2018-06-27T14:13:32.519Z,28.70
2018-06-27T14:16:00.795Z,29.50
2018-06-27T14:18:29.005Z,30.30
2018-06-27T14:20:57.256Z,31.00
2018-06-27T14:23:25.520Z,31.10
2018-06-27T14:25:53.815Z,31.30
2018-06-27T14:28:23.457Z,31.50
2018-06-27T14:30:51.715Z,31.70
2018-06-27T14:33:19.968Z,31.90
2018-06-27T14:35:48.232Z,31.50
2018-06-27T14:38:16.463Z,31.80
2018-06-27T14:40:44.742Z,32.40
2018-06-27T14:43:13.016Z,32.30
2018-06-27T14:45:41.271Z,32.10
2018-06-27T14:48:09.512Z,32.10
2018-06-27T14:50:38.268Z,31.80
2018-06-27T14:55:34.720Z,32.20
2018-06-27T14:58:03.331Z,32.10
2018-06-27T15:00:31.571Z,30.90
2018-06-27T15:02:59.816Z,30.30
2018-06-27T15:05:28.063Z,30.90
2018-06-27T15:07:56.299Z,31.40
2018-06-27T15:10:24.547Z,31.10
2018-06-27T15:12:52.747Z,31.10
2018-06-27T15:15:20.984Z,31.30
2018-06-27T15:17:49.273Z,31.20
2018-06-27T15:20:17.520Z,31.60
2018-06-27T15:22:47.693Z,31.60
2018-06-27T15:25:15.907Z,30.70
2018-06-27T15:27:44.200Z,31.10
2018-06-27T15:30:12.932Z,31.30
2018-06-27T15:32:41.176Z,31.90
2018-06-27T15:35:09.468Z,32.40
2018-06-27T15:37:37.710Z,32.70
2018-06-27T15:40:05.887Z,32.80
2018-06-27T15:42:34.104Z,32.60
2018-06-27T15:45:02.664Z,32.80
2018-06-27T15:47:30.909Z,33.20
2018-06-27T15:49:59.483Z,33.60
2018-06-27T15:52:27.687Z,33.60
2018-06-27T15:54:55.899Z,33.30
2018-06-27T15:57:24.209Z,32.80
2018-06-27T15:59:53.904Z,32.90
2018-06-27T16:02:22.720Z,33.30
2018-06-27T16:04:50.948Z,33.30
2018-06-27T16:07:19.905Z,32.90
2018-06-27T16:09:49.507Z,32.80
2018-06-27T16:12:17.971Z,32.30
2018-06-27T16:14:46.275Z,31.90
2018-06-27T16:17:14.619Z,31.00
2018-06-27T16:19:42.978Z,31.10
2018-06-27T16:22:11.399Z,31.70
2018-06-27T16:24:39.603Z,32.30
2018-06-27T16:27:07.867Z,33.20
2018-06-27T16:29:36.192Z,33.20
2018-06-27T16:32:04.410Z,33.30
2018-06-27T16:34:33.626Z,33.00
2018-06-27T16:37:01.860Z,31.10
2018-06-27T16:39:30.337Z,29.90
2018-06-27T16:41:58.631Z,30.30
2018-06-27T16:44:26.879Z,31.30
2018-06-27T16:46:55.308Z,31.60
2018-06-27T16:49:23.583Z,30.90
2018-06-27T16:51:51.822Z,29.90
2018-06-27T16:54:20.090Z,29.10
2018-06-27T16:56:48.364Z,29.60
2018-06-27T16:59:16.605Z,29.80
2018-06-27T17:01:45.081Z,30.60
2018-06-27T17:04:13.389Z,31.20
2018-06-27T17:06:41.894Z,30.20
2018-06-27T17:09:10.761Z,28.90
2018-06-27T17:11:39.564Z,28.30
2018-06-27T17:14:08.284Z,27.90
2018-06-27T17:16:36.541Z,27.90
2018-06-27T17:19:04.892Z,28.10
2018-06-27T17:21:33.112Z,28.20
2018-06-27T17:24:01.373Z,27.60
2018-06-27T17:26:29.627Z,26.80
2018-06-27T17:28:57.879Z,26.20
2018-06-27T17:31:26.175Z,25.60
2018-06-27T17:33:54.405Z,25.20
2018-06-27T17:36:22.710Z,25.10
2018-06-27T17:38:50.951Z,25.00
2018-06-27T17:41:19.423Z,24.80
2018-06-27T17:43:47.747Z,24.90
2018-06-27T17:46:16.596Z,25.10
2018-06-27T17:48:44.843Z,25.40
2018-06-27T17:51:13.090Z,25.40
2018-06-27T17:53:41.397Z,25.50
2018-06-27T17:58:37.821Z,25.10
2018-06-27T18:01:06.128Z,24.80
2018-06-27T18:03:34.692Z,24.50
2018-06-27T18:06:02.950Z,24.20
2018-06-27T18:08:31.188Z,23.90
2018-06-27T18:11:00.068Z,23.70
2018-06-27T18:13:28.308Z,23.50
2018-06-27T18:15:56.585Z,23.50
2018-06-27T18:18:24.816Z,23.40
2018-06-27T18:20:53.065Z,23.30
2018-06-27T18:23:21.927Z,23.30
2018-06-27T18:25:50.156Z,23.20
2018-06-27T18:28:18.715Z,23.10
2018-06-27T18:30:47.371Z,23.10
2018-06-27T18:33:15.631Z,23.00
2018-06-27T18:35:44.800Z,22.90
2018-06-27T18:38:12.995Z,22.80
2018-06-27T18:43:11.068Z,22.70
2018-06-27T18:45:39.312Z,22.60
2018-06-27T18:48:07.616Z,22.50
2018-06-27T18:50:35.947Z,22.30
2018-06-27T18:53:04.185Z,22.20
2018-06-27T18:55:32.415Z,22.10
2018-06-27T18:58:00.650Z,22.00
2018-06-27T19:00:29.814Z,21.90
2018-06-27T19:02:58.007Z,21.80
2018-06-27T19:05:26.239Z,21.70
2018-06-27T19:07:55.111Z,21.60
2018-06-27T19:10:23.328Z,21.50
2018-06-27T19:12:51.547Z,21.40
2018-06-27T19:15:20.281Z,21.20
2018-06-27T19:17:48.636Z,21.10
2018-06-27T19:20:17.601Z,20.90
2018-06-27T19:22:45.885Z,20.80
2018-06-27T19:25:14.488Z,20.60
2018-06-27T19:27:42.717Z,20.40
2018-06-27T19:30:11.027Z,20.20
2018-06-27T19:32:39.514Z,20.10
2018-06-27T19:35:08.507Z,19.90
2018-06-27T19:37:37.469Z,19.80
2018-06-27T19:42:33.984Z,19.70
2018-06-27T19:45:02.243Z,19.60
2018-06-27T19:47:31.905Z,19.70
2018-06-27T19:50:00.157Z,19.60
2018-06-27T19:52:28.810Z,19.60
2018-06-27T19:54:57.808Z,19.40
2018-06-27T19:57:26.065Z,19.30
2018-06-27T19:59:54.297Z,19.20
2018-06-27T20:02:23.007Z,19.10
2018-06-27T20:04:51.243Z,19.10
2018-06-27T20:07:19.560Z,19.00
2018-06-27T20:09:47.800Z,18.90
2018-06-27T20:12:16.051Z,18.80
2018-06-27T20:14:44.386Z,18.70
2018-06-27T20:17:12.592Z,18.60
2018-06-27T20:19:40.816Z,18.50
2018-06-27T20:22:09.127Z,18.50
2018-06-27T20:24:37.399Z,18.50
2018-06-27T20:27:05.960Z,18.50
2018-06-27T20:29:34.206Z,18.50
2018-06-27T20:32:02.427Z,18.50
2018-06-27T20:34:30.658Z,18.50
2018-06-27T20:36:59.613Z,18.50
2018-06-27T20:39:28.056Z,18.50
2018-06-27T20:41:56.305Z,18.40
2018-06-27T20:44:24.584Z,18.30
2018-06-27T20:46:54.616Z,18.30
2018-06-27T20:49:23.688Z,18.20
2018-06-27T20:51:51.923Z,18.20
2018-06-27T20:54:20.127Z,18.20
2018-06-27T20:56:48.387Z,18.10
2018-06-27T20:59:16.827Z,18.10
2018-06-27T21:01:45.073Z,17.90
2018-06-27T21:04:13.355Z,17.90
2018-06-27T21:06:41.552Z,17.90
2018-06-27T21:11:39.301Z,17.80
2018-06-27T21:14:07.573Z,17.70
2018-06-27T21:16:35.776Z,17.60
2018-06-27T21:19:04.026Z,17.60
2018-06-27T21:21:32.308Z,17.50
2018-06-27T21:24:00.651Z,17.50
2018-06-27T21:26:29.727Z,17.50
2018-06-27T21:31:25.912Z,17.50
2018-06-27T21:33:54.153Z,17.40
2018-06-27T21:36:22.372Z,17.30
2018-06-27T21:38:51.503Z,17.20
2018-06-27T21:46:16.672Z,17.00
2018-06-27T21:48:45.376Z,16.90
2018-06-27T21:51:13.577Z,16.90
2018-06-27T21:53:41.928Z,16.90
2018-06-27T21:56:10.212Z,17.00
2018-06-27T21:58:38.492Z,17.00
2018-06-27T22:01:06.799Z,17.00
2018-06-27T22:03:35.032Z,16.90
2018-06-27T22:06:03.363Z,16.80
2018-06-27T22:08:31.579Z,16.80
2018-06-27T22:10:59.795Z,16.80
2018-06-27T22:13:28.071Z,16.80
2018-06-27T22:15:56.381Z,16.80
2018-06-27T22:20:53.397Z,16.80
2018-06-27T22:23:21.932Z,16.70
2018-06-27T22:25:50.191Z,16.70
2018-06-27T22:28:18.427Z,16.60
2018-06-27T22:30:46.699Z,16.60
2018-06-27T22:33:16.788Z,16.50
2018-06-27T22:35:45.076Z,16.40
2018-06-27T22:38:13.313Z,16.20
2018-06-27T22:40:41.755Z,16.10
2018-06-27T22:43:10.025Z,16.00
2018-06-27T22:45:38.230Z,15.90
2018-06-27T22:48:06.475Z,15.90
2018-06-27T22:50:35.084Z,15.90
2018-06-27T22:53:03.340Z,15.80
2018-06-27T22:55:32.860Z,15.80
2018-06-27T22:58:01.533Z,15.70
2018-06-27T23:00:29.770Z,15.80
2018-06-27T23:02:57.976Z,15.80
2018-06-27T23:05:26.220Z,15.80
2018-06-27T23:07:54.845Z,15.70
2018-06-27T23:10:23.063Z,15.60
2018-06-27T23:12:52.796Z,15.60
2018-06-27T23:15:21.136Z,15.60
2018-06-27T23:17:49.939Z,15.60
2018-06-27T23:20:18.131Z,15.60
2018-06-27T23:22:48.252Z,15.70
2018-06-27T23:25:18.024Z,15.70
2018-06-27T23:27:46.767Z,15.70
2018-06-27T23:30:16.667Z,15.80
2018-06-27T23:32:44.887Z,15.70
2018-06-27T23:35:13.164Z,15.80
2018-06-27T23:37:41.519Z,15.80
2018-06-27T23:40:09.783Z,15.80
2018-06-27T23:42:38.072Z,15.60
2018-06-27T23:45:07.032Z,15.60
2018-06-27T23:47:35.507Z,15.60
2018-06-27T23:50:03.996Z,15.70
2018-06-27T23:52:32.232Z,15.70
2018-06-27T23:55:01.259Z,15.70
2018-06-27T23:57:30.066Z,15.70
2018-06-27T23:59:59.098Z,15.80
